Time;durP1;ratioP1;P1;durP2;ratioP2;P2;SDS_P1;SDS_P2;PMS_P1;PMS_P2;Temp;Humidity;BMP_temperature;BMP_pressure;BME280_temperature;BME280_humidity;BME280_pressure;Samples;Min_cycle;Max_cycle;Signal;HPM_P1;HPM_P2
2022/03/20 00:00:26;;;;;;;8.00;5.38;;;;;;;4.41;100.00;103929.78;6185878;23;20016;-77
2022/03/20 00:02:55;;;;;;;8.75;4.90;;;;;;;4.39;100.00;103928.75;6206810;23;20020;-77
2022/03/20 00:05:24;;;;;;;8.43;4.60;;;;;;;4.39;100.00;103929.66;6188040;23;20442;-77
2022/03/20 00:07:52;;;;;;;8.07;4.80;;;;;;;4.38;100.00;103929.53;6210026;23;20443;-77
2022/03/20 00:10:21;;;;;;;9.45;5.13;;;;;;;4.36;100.00;103908.50;6236371;23;20539;-77
2022/03/20 00:12:49;;;;;;;12.65;5.22;;;;;;;4.36;100.00;103907.59;6234297;23;20028;-77
2022/03/20 00:15:17;;;;;;;8.75;4.82;;;;;;;4.33;100.00;103902.13;6219700;23;20150;-77
2022/03/20 00:17:46;;;;;;;6.80;5.10;;;;;;;4.34;100.00;103911.81;6182419;23;20020;-77
2022/03/20 00:20:15;;;;;;;9.20;5.03;;;;;;;4.34;100.00;103898.75;6184644;23;20233;-77
2022/03/20 00:22:43;;;;;;;7.20;4.78;;;;;;;4.35;100.00;103892.72;6210960;23;20021;-77
2022/03/20 00:25:12;;;;;;;8.85;5.03;;;;;;;4.35;100.00;103901.50;6223331;23;20194;-77
2022/03/20 00:27:41;;;;;;;9.90;5.05;;;;;;;4.35;100.00;103893.66;6175128;23;20016;-77
2022/03/20 00:30:10;;;;;;;12.68;5.05;;;;;;;4.35;100.00;103883.22;6195367;23;20016;-77
2022/03/20 00:32:38;;;;;;;14.23;6.45;;;;;;;4.35;100.00;103884.88;6201519;23;20021;-77
2022/03/20 00:35:07;;;;;;;8.55;4.85;;;;;;;4.34;100.00;103885.69;6207237;23;20350;-77
2022/03/20 00:37:35;;;;;;;8.57;5.25;;;;;;;4.32;100.00;103885.56;6210873;23;20161;-77
2022/03/20 00:40:04;;;;;;;7.75;5.47;;;;;;;4.31;100.00;103894.22;6216084;23;20464;-78
2022/03/20 00:42:32;;;;;;;9.10;5.30;;;;;;;4.33;100.00;103876.03;6211625;23;20016;-77
2022/03/20 00:45:01;;;;;;;9.00;6.00;;;;;;;4.34;100.00;103885.69;6241370;23;20028;-77
2022/03/20 00:47:29;;;;;;;8.07;5.40;;;;;;;4.33;100.00;103878.63;6194812;23;20023;-77
2022/03/20 00:49:58;;;;;;;10.48;5.60;;;;;;;4.32;100.00;103874.22;6217473;23;20016;-77
2022/03/20 00:52:26;;;;;;;11.02;5.88;;;;;;;4.29;100.00;103875.81;6176517;23;20346;-77
2022/03/20 00:54:54;;;;;;;7.60;5.75;;;;;;;4.26;100.00;103875.56;6214586;23;20020;-77
2022/03/20 00:57:23;;;;;;;10.18;5.60;;;;;;;4.22;100.00;103870.91;6240753;23;20465;-77
2022/03/20 00:59:51;;;;;;;9.80;5.45;;;;;;;4.19;100.00;103867.13;6214474;23;20012;-77
2022/03/20 01:02:20;;;;;;;8.70;5.72;;;;;;;4.16;100.00;103862.59;6192262;23;20019;-77
2022/03/20 01:04:49;;;;;;;9.95;5.82;;;;;;;4.11;100.00;103863.94;6241340;23;20269;-77
2022/03/20 01:07:17;;;;;;;11.55;6.07;;;;;;;4.09;100.00;103874.25;6214903;23;20016;-77
2022/03/20 01:09:46;;;;;;;10.50;6.10;;;;;;;4.08;100.00;103863.69;6234748;23;20370;-77
2022/03/20 01:12:14;;;;;;;8.07;6.25;;;;;;;4.07;100.00;103857.56;6231780;23;20027;-77
2022/03/20 01:14:43;;;;;;;11.52;6.47;;;;;;;4.05;100.00;103863.47;6239417;23;20222;-77
2022/03/20 01:17:12;;;;;;;11.23;7.00;;;;;;;4.04;100.00;103853.81;6227568;23;20023;-77
2022/03/20 01:19:40;;;;;;;16.27;7.78;;;;;;;4.03;100.00;103847.69;6237317;23;20016;-77
2022/03/20 01:22:09;;;;;;;11.73;6.72;;;;;;;4.01;100.00;103849.25;6217110;23;20015;-77
2022/03/20 01:24:37;;;;;;;10.98;7.35;;;;;;;4.01;100.00;103848.38;6205951;23;20778;-77
2022/03/20 01:27:07;;;;;;;13.13;6.85;;;;;;;4.02;100.00;103840.63;6181976;23;20020;-77
2022/03/20 01:29:35;;;;;;;11.30;6.95;;;;;;;4.02;100.00;103843.25;6237345;23;20072;-77
2022/03/20 01:32:04;;;;;;;10.98;7.28;;;;;;;4.03;100.00;103833.72;6217272;23;20031;-77
2022/03/20 01:34:33;;;;;;;15.75;7.55;;;;;;;4.03;100.00;103826.81;6146556;23;20028;-77
2022/03/20 01:37:02;;;;;;;11.95;7.80;;;;;;;4.04;100.00;103815.56;6215794;23;20028;-77
2022/03/20 01:39:31;;;;;;;8.13;6.03;;;;;;;4.04;100.00;103819.88;6206238;23;20008;-77
2022/03/20 01:42:05;;;;;;;11.43;7.30;;;;;;;4.06;100.00;103813.06;6243647;23;20445;-77
2022/03/20 01:44:35;;;;;;;10.88;7.55;;;;;;;4.06;100.00;103808.78;6235325;23;20027;-77
2022/03/20 01:47:08;;;;;;;12.43;7.75;;;;;;;4.06;100.00;103805.25;6191944;23;20020;-77
2022/03/20 01:49:36;;;;;;;13.02;7.47;;;;;;;4.05;100.00;103793.91;6220839;23;20055;-77
2022/03/20 01:52:11;;;;;;;12.73;7.32;;;;;;;4.05;100.00;103799.13;6241163;23;20023;-77
2022/03/20 01:54:45;;;;;;;11.73;7.65;;;;;;;4.02;100.00;103796.25;6230694;23;20480;-77
2022/03/20 01:57:20;;;;;;;14.63;8.48;;;;;;;4.00;100.00;103791.72;6239159;23;20016;-77
2022/03/20 01:59:50;;;;;;;13.68;8.43;;;;;;;3.98;100.00;103785.50;6202560;23;20020;-77
2022/03/20 02:02:19;;;;;;;17.05;7.97;;;;;;;3.96;100.00;103784.47;6237629;23;20413;-77
2022/03/20 02:04:48;;;;;;;14.33;8.07;;;;;;;3.93;100.00;103779.00;6198671;23;20332;-77
2022/03/20 02:07:17;;;;;;;13.13;7.90;;;;;;;3.90;100.00;103772.75;6241760;23;20020;-77
2022/03/20 02:09:45;;;;;;;12.07;8.48;;;;;;;3.89;100.00;103775.22;6207260;23;20705;-77
2022/03/20 02:12:14;;;;;;;12.13;7.93;;;;;;;3.85;100.00;103774.09;6215760;23;20020;-76
2022/03/20 02:14:43;;;;;;;11.43;7.85;;;;;;;3.81;100.00;103772.03;6185983;23;20028;-76
2022/03/20 02:17:11;;;;;;;15.35;8.27;;;;;;;3.79;100.00;103763.19;6191667;23;20043;-76
2022/03/20 02:19:41;;;;;;;13.35;8.43;;;;;;;3.78;100.00;103753.56;6196085;23;20024;-76
2022/03/20 02:22:10;;;;;;;12.57;8.82;;;;;;;3.77;100.00;103748.22;6215636;23;20024;-76
2022/03/20 02:24:41;;;;;;;12.30;8.60;;;;;;;3.75;100.00;103741.97;6232283;23;20251;-76
2022/03/20 02:27:24;;;;;;;12.82;8.73;;;;;;;3.74;100.00;103742.75;6242850;23;20031;-76
2022/03/20 02:30:00;;;;;;;15.77;8.55;;;;;;;3.73;100.00;103738.34;6240627;23;20020;-76
2022/03/20 02:32:31;;;;;;;12.70;8.18;;;;;;;3.70;100.00;103739.94;6236851;23;20027;-76
2022/03/20 02:35:05;;;;;;;14.85;9.40;;;;;;;3.67;100.00;103726.63;6214353;23;20031;-76
2022/03/20 02:37:34;;;;;;;13.45;9.65;;;;;;;3.66;100.00;103722.19;6194995;23;20230;-76
2022/03/20 02:40:03;;;;;;;15.77;9.57;;;;;;;3.66;100.00;103726.50;6242581;23;20016;-77
2022/03/20 02:42:32;;;;;;;11.88;9.05;;;;;;;3.65;100.00;103724.72;6180112;23;20024;-76
2022/03/20 02:45:03;;;;;;;13.73;9.68;;;;;;;3.62;100.00;103721.84;6215863;23;20016;-76
2022/03/20 02:47:37;;;;;;;16.20;9.98;;;;;;;3.59;100.00;103709.50;6237826;23;20031;-76
2022/03/20 02:50:09;;;;;;;15.25;10.38;;;;;;;3.58;100.00;103706.75;6190462;23;20020;-76
2022/03/20 02:52:51;;;;;;;15.23;10.10;;;;;;;3.54;100.00;103699.50;6221752;23;20020;-76
2022/03/20 02:55:22;;;;;;;16.20;9.73;;;;;;;3.51;100.00;103706.25;6213472;23;20023;-76
2022/03/20 02:57:52;;;;;;;15.43;9.27;;;;;;;3.53;100.00;103700.28;6233542;23;20237;-76
2022/03/20 03:00:25;;;;;;;13.10;9.82;;;;;;;3.54;100.00;103697.78;6214430;23;20016;-76
2022/03/20 03:02:56;;;;;;;13.88;9.77;;;;;;;3.54;100.00;103694.28;6237751;23;20349;-76
2022/03/20 03:05:27;;;;;;;14.57;9.35;;;;;;;3.54;100.00;103696.88;6237984;23;20023;-76
2022/03/20 03:10:56;;;;;;;15.80;10.55;;;;;;;3.53;100.00;103695.06;6238549;23;20016;-76
2022/03/20 03:13:40;;;;;;;14.45;9.80;;;;;;;3.51;100.00;103695.84;6196849;23;20068;-76
2022/03/20 03:16:14;;;;;;;16.33;9.90;;;;;;;3.49;100.00;103684.38;6204825;23;20020;-76
2022/03/20 03:18:44;;;;;;;18.15;10.07;;;;;;;3.49;100.00;103678.25;6238059;23;20024;-76
2022/03/20 03:21:14;;;;;;;;;;;;;;;3.46;100.00;103660.69;6215315;23;20023;-76
2022/03/20 03:23:43;;;;;;;16.80;10.65;;;;;;;3.43;100.00;103665.66;6196231;23;20365;-76
2022/03/20 03:26:12;;;;;;;16.42;10.95;;;;;;;3.44;100.00;103672.72;6242273;23;20024;-76
2022/03/20 03:28:41;;;;;;;16.83;9.80;;;;;;;3.43;100.00;103668.28;6230107;23;20477;-76
2022/03/20 03:31:11;;;;;;;16.83;10.52;;;;;;;3.43;100.00;103664.75;6191356;23;20016;-77
2022/03/20 03:36:29;;;;;;;16.93;10.57;;;;;;;3.40;100.00;103664.50;6194901;23;20472;-76
2022/03/20 03:38:58;;;;;;;18.05;10.27;;;;;;;3.38;100.00;103656.56;6200717;23;20262;-77
2022/03/20 03:41:26;;;;;;;16.08;10.38;;;;;;;3.38;100.00;103650.44;6211590;23;20442;-76
2022/03/20 03:43:55;;;;;;;15.35;10.07;;;;;;;3.35;100.00;103643.31;6209789;23;20031;-76
2022/03/20 03:46:24;;;;;;;17.85;11.02;;;;;;;3.33;100.00;103647.50;6237874;23;20016;-76
2022/03/20 03:48:53;;;;;;;14.65;10.13;;;;;;;3.31;100.00;103649.09;6213776;23;20478;-76
2022/03/20 03:51:21;;;;;;;14.27;11.55;;;;;;;3.29;100.00;103632.44;6212774;23;20027;-76
2022/03/20 03:53:50;;;;;;;15.82;10.43;;;;;;;3.27;100.00;103637.50;6197992;23;20015;-76
2022/03/20 03:56:19;;;;;;;15.23;10.60;;;;;;;3.25;100.00;103640.75;6239881;23;20024;-76
2022/03/20 03:58:47;;;;;;;16.10;10.52;;;;;;;3.22;100.00;103631.03;6207817;23;20043;-76
2022/03/20 04:01:16;;;;;;;16.55;11.73;;;;;;;3.21;100.00;103620.47;6215408;23;20019;-76
2022/03/20 04:03:44;;;;;;;13.02;10.40;;;;;;;3.18;100.00;103621.16;6210732;23;20234;-76
2022/03/20 04:06:13;;;;;;;14.45;11.07;;;;;;;3.16;100.00;103616.59;6175492;23;20020;-76
2022/03/20 04:08:41;;;;;;;18.60;10.85;;;;;;;3.12;100.00;103611.16;6221389;23;20392;-75
2022/03/20 04:11:10;;;;;;;14.73;10.55;;;;;;;3.10;100.00;103611.81;6241825;23;20016;-76
2022/03/20 04:13:40;;;;;;;18.67;11.52;;;;;;;3.06;100.00;103610.69;6205317;23;20249;-76
2022/03/20 04:16:08;;;;;;;15.65;11.40;;;;;;;3.02;100.00;103603.41;6217002;23;20458;-76
2022/03/20 04:18:37;;;;;;;15.90;11.05;;;;;;;3.00;100.00;103604.97;6237770;23;20233;-76
2022/03/20 04:21:05;;;;;;;15.25;11.13;;;;;;;3.00;100.00;103598.88;6207053;23;20012;-76
2022/03/20 04:23:44;;;;;;;16.23;10.85;;;;;;;2.98;100.00;103588.31;6172820;23;20266;-76
2022/03/20 04:26:18;;;;;;;21.30;11.75;;;;;;;2.97;100.00;103599.56;6197017;23;20023;-76
2022/03/20 04:28:48;;;;;;;17.95;12.02;;;;;;;2.95;100.00;103601.13;6215268;23;20238;-76
2022/03/20 04:31:19;;;;;;;16.57;11.17;;;;;;;2.95;100.00;103595.94;6237626;23;20012;-76
2022/03/20 04:33:49;;;;;;;;;;;;;;;2.92;100.00;103596.56;6214270;23;20459;-76
2022/03/20 04:36:24;;;;;;;16.80;11.35;;;;;;;2.90;100.00;103597.25;6216439;23;20237;-76
2022/03/20 04:38:55;;;;;;;17.63;12.43;;;;;;;2.88;100.00;103589.31;6235329;23;20051;-76
2022/03/20 04:41:24;;;;;;;;;;;;;;;2.86;100.00;103595.19;6194395;23;20020;-76
2022/03/20 04:43:53;;;;;;;19.85;12.57;;;;;;;2.83;100.00;103594.94;6210227;23;20302;-76
2022/03/20 04:46:21;;;;;;;19.17;11.98;;;;;;;2.81;100.00;103593.91;6205808;23;20017;-76
2022/03/20 04:59:58;;;;;;;16.52;12.05;;;;;;;2.73;100.00;103586.41;6180315;23;20429;-76
2022/03/20 05:02:27;;;;;;;17.30;11.98;;;;;;;2.72;100.00;103576.78;6227660;23;20019;-76
2022/03/20 05:04:55;;;;;;;16.30;12.50;;;;;;;2.71;100.00;103574.97;6234610;23;20028;-75
2022/03/20 05:07:24;;;;;;;19.85;13.13;;;;;;;2.70;100.00;103580.97;6208374;23;20024;-76
2022/03/20 05:15:26;;;;;;;21.33;14.05;;;;;;;2.65;100.00;103571.88;6208757;23;20044;-76
2022/03/20 05:17:54;;;;;;;20.48;13.88;;;;;;;2.65;100.00;103570.97;6179389;23;20024;-76
2022/03/20 05:20:25;;;;;;;19.40;12.80;;;;;;;2.64;100.00;103551.81;6209412;23;20453;-76
2022/03/20 05:22:53;;;;;;;20.75;13.65;;;;;;;2.64;100.00;103546.63;6235479;23;20016;-76
2022/03/20 05:25:23;;;;;;;20.67;13.35;;;;;;;2.65;100.00;103542.34;6208613;23;20025;-76
2022/03/20 05:27:51;;;;;;;21.45;12.45;;;;;;;2.63;100.00;103538.72;6193465;23;20016;-76
2022/03/20 05:30:19;;;;;;;19.92;13.13;;;;;;;2.62;100.00;103542.09;6210037;23;20027;-76
2022/03/20 05:32:48;;;;;;;24.05;13.23;;;;;;;2.61;100.00;103530.78;6202161;23;20253;-76
2022/03/20 05:35:17;;;;;;;23.23;13.15;;;;;;;2.62;100.00;103540.38;6199936;23;20032;-76
2022/03/20 05:37:46;;;;;;;21.10;13.05;;;;;;;2.61;100.00;103535.97;6183295;23;20153;-76
2022/03/20 05:40:18;;;;;;;21.63;14.05;;;;;;;2.59;100.00;103534.94;6210283;23;20546;-76
2022/03/20 05:42:47;;;;;;;23.20;13.90;;;;;;;2.57;100.00;103528.72;6158833;23;20016;-77
2022/03/20 05:45:15;;;;;;;20.88;14.00;;;;;;;2.56;100.00;103532.09;6212733;23;20350;-77
2022/03/20 05:47:43;;;;;;;22.52;12.65;;;;;;;2.55;100.00;103530.25;6202914;23;20020;-77
2022/03/20 05:50:12;;;;;;;18.40;13.18;;;;;;;2.56;100.00;103520.78;6237132;23;20355;-77
2022/03/20 05:52:40;;;;;;;18.83;12.80;;;;;;;2.55;100.00;103525.06;6222711;23;20397;-77
2022/03/20 05:55:09;;;;;;;20.95;13.20;;;;;;;2.57;100.00;103519.97;6212132;23;20043;-77
2022/03/20 06:00:27;;;;;;;19.92;14.57;;;;;;;2.56;100.00;103500.84;6223345;23;20027;-77
2022/03/20 06:02:55;;;;;;;21.38;13.45;;;;;;;2.59;100.00;103498.50;6204630;23;20473;-77
2022/03/20 06:05:24;;;;;;;19.45;12.75;;;;;;;2.58;100.00;103514.00;6201376;23;20020;-77
2022/03/20 06:07:52;;;;;;;17.63;12.35;;;;;;;2.61;100.00;103509.94;6207584;23;20354;-77
2022/03/20 06:10:21;;;;;;;21.17;14.20;;;;;;;2.61;100.00;103512.56;6229850;23;20620;-77
2022/03/20 06:12:49;;;;;;;19.02;13.52;;;;;;;2.63;100.00;103508.38;6214411;23;20024;-77
2022/03/20 06:15:17;;;;;;;17.83;12.93;;;;;;;2.64;100.00;103504.06;6192742;23;20024;-77
2022/03/20 06:17:46;;;;;;;21.85;13.70;;;;;;;2.66;100.00;103497.28;6185982;23;20021;-77
2022/03/20 06:20:16;;;;;;;24.63;13.32;;;;;;;2.66;100.00;103507.69;6174082;23;20028;-77
2022/03/20 06:22:45;;;;;;;21.92;13.48;;;;;;;2.67;100.00;103505.22;6237089;23;20463;-77
2022/03/20 06:25:15;;;;;;;23.35;16.15;;;;;;;2.69;100.00;103498.41;6205339;23;20016;-77
2022/03/20 06:27:48;;;;;;;20.88;14.68;;;;;;;2.71;100.00;103493.34;6237150;23;20021;-77
2022/03/20 06:30:18;;;;;;;19.13;13.80;;;;;;;2.70;99.72;103482.03;6217350;23;20028;-77
2022/03/20 06:32:48;;;;;;;20.80;13.43;;;;;;;2.73;99.54;103489.16;6230646;23;20012;-77
2022/03/20 06:35:19;;;;;;;19.20;13.50;;;;;;;2.76;99.67;103491.06;6203332;23;20020;-77
2022/03/20 06:37:55;;;;;;;22.05;12.98;;;;;;;2.78;99.36;103484.28;6212303;23;20047;-76
2022/03/20 06:40:23;;;;;;;19.05;13.57;;;;;;;2.80;99.63;103477.50;6203116;23;20016;-77
2022/03/20 06:42:52;;;;;;;22.65;13.90;;;;;;;2.82;98.67;103475.94;6212202;23;20016;-77
2022/03/20 06:45:21;;;;;;;16.60;12.30;;;;;;;2.84;98.35;103482.19;6192608;23;20233;-76
2022/03/20 06:47:49;;;;;;;18.33;13.50;;;;;;;2.88;98.73;103479.00;6212660;23;20051;-77
2022/03/20 06:50:18;;;;;;;19.88;13.85;;;;;;;2.99;98.98;103480.75;6152768;23;20051;-77
2022/03/20 06:52:47;;;;;;;22.52;13.18;;;;;;;3.07;97.91;103471.81;6177143;23;20450;-77
2022/03/20 06:55:16;;;;;;;22.73;13.80;;;;;;;3.27;97.96;103472.38;6194798;23;20036;-77
2022/03/20 06:57:46;;;;;;;22.23;13.35;;;;;;;3.45;98.24;103481.59;6199680;23;20327;-77
2022/03/20 07:00:16;;;;;;;17.52;13.27;;;;;;;3.56;96.14;103474.56;6199832;23;20024;-77
2022/03/20 07:03:00;;;;;;;17.25;13.18;;;;;;;3.76;95.96;103465.59;6213007;23;20046;-77
2022/03/20 07:05:32;;;;;;;18.05;13.55;;;;;;;3.93;95.61;103472.03;6154781;23;20028;-77
2022/03/20 07:08:00;;;;;;;20.20;12.77;;;;;;;4.05;94.96;103477.25;6150987;23;20028;-77
2022/03/20 07:10:29;;;;;;;17.15;12.88;;;;;;;4.18;95.79;103477.34;6206061;23;20036;-77
2022/03/20 07:15:53;;;;;;;18.33;12.32;;;;;;;4.53;94.67;103470.19;6199650;23;20107;-77
2022/03/20 07:18:23;;;;;;;16.35;12.38;;;;;;;4.76;93.88;103472.66;6231129;23;20043;-77
2022/03/20 07:20:54;;;;;;;20.17;12.88;;;;;;;4.94;91.91;103462.59;6227731;23;20439;-77
2022/03/20 07:23:23;;;;;;;18.75;13.10;;;;;;;5.06;92.21;103470.34;6206727;23;20316;-77
2022/03/20 07:31:25;;;;;;;16.02;12.45;;;;;;;5.61;91.96;103454.81;6190350;23;20059;-76
2022/03/20 07:33:54;;;;;;;18.33;12.93;;;;;;;5.69;90.35;103458.84;6177590;23;20347;-76
2022/03/20 07:36:22;;;;;;;21.55;13.27;;;;;;;5.75;88.16;103454.00;6225771;23;20138;-76
2022/03/20 07:38:51;;;;;;;18.13;13.18;;;;;;;5.79;87.61;103435.06;6151835;23;20033;-76
2022/03/20 07:41:19;;;;;;;17.27;12.27;;;;;;;5.97;88.29;103431.84;6206074;23;20024;-78
2022/03/20 07:43:48;;;;;;;16.13;12.38;;;;;;;6.17;88.51;103428.78;6232367;23;20442;-76
2022/03/20 07:46:17;;;;;;;18.08;13.07;;;;;;;6.20;86.51;103402.78;6195323;23;20025;-76
2022/03/20 07:48:45;;;;;;;18.33;13.13;;;;;;;6.43;87.93;103405.91;6210975;23;20028;-76
2022/03/20 07:51:17;;;;;;;16.08;12.50;;;;;;;6.60;83.14;103381.66;6206497;23;20019;-76
2022/03/20 07:53:46;;;;;;;16.38;12.32;;;;;;;6.63;83.98;103379.22;6237268;23;20012;-76
2022/03/20 07:56:18;;;;;;;17.48;13.05;;;;;;;6.67;84.69;103384.63;6185090;23;20342;-76
2022/03/20 07:58:46;;;;;;;17.50;13.18;;;;;;;6.64;83.20;103365.28;6210297;23;20031;-77
2022/03/20 08:01:15;;;;;;;21.85;16.55;;;;;;;6.72;84.34;103372.72;6200463;23;20021;-78
2022/03/20 08:03:50;;;;;;;16.23;12.82;;;;;;;6.84;82.65;103362.94;6213404;23;20020;-78
2022/03/20 08:06:18;;;;;;;14.65;12.30;;;;;;;7.00;82.46;103364.75;6179398;23;20025;-77
2022/03/20 08:08:47;;;;;;;17.98;12.38;;;;;;;7.04;81.68;103351.00;6202472;23;20024;-77
2022/03/20 08:11:15;;;;;;;17.55;12.35;;;;;;;7.24;82.85;103341.66;6209819;23;20462;-77
2022/03/20 08:13:44;;;;;;;17.55;13.20;;;;;;;7.36;82.20;103344.97;6208128;23;20020;-77
2022/03/20 08:16:15;;;;;;;16.58;12.50;;;;;;;7.45;81.24;103338.41;6166806;23;20446;-77
2022/03/20 08:18:45;;;;;;;19.75;13.43;;;;;;;7.58;80.67;103348.78;6211119;23;20048;-77
2022/03/20 08:21:13;;;;;;;18.63;13.27;;;;;;;7.63;79.72;103334.19;6209223;23;20021;-76
2022/03/20 08:23:42;;;;;;;14.27;11.93;;;;;;;7.67;78.73;103338.78;6227165;23;20020;-77
2022/03/20 08:26:11;;;;;;;17.67;12.75;;;;;;;7.83;79.49;103334.41;6235499;23;20021;-76
2022/03/20 08:28:45;;;;;;;18.98;12.52;;;;;;;7.92;77.46;103330.56;6228142;23;20032;-75
2022/03/20 08:31:14;;;;;;;17.38;12.85;;;;;;;7.89;75.79;103329.47;6208227;23;20025;-76
2022/03/20 08:33:43;;;;;;;15.57;13.30;;;;;;;8.06;77.25;103317.25;6192775;23;20023;-78
2022/03/20 08:36:13;;;;;;;21.40;13.45;;;;;;;8.13;75.32;103319.38;6235686;23;20489;-76
2022/03/20 08:38:41;;;;;;;17.85;13.57;;;;;;;8.20;75.88;103317.16;6204714;23;20021;-75
2022/03/20 08:41:10;;;;;;;17.58;12.90;;;;;;;8.34;75.23;103328.38;6210570;23;20031;-75
2022/03/20 08:43:38;;;;;;;16.52;13.30;;;;;;;8.44;74.64;103324.53;6211244;23;20024;-75
2022/03/20 08:46:07;;;;;;;16.00;12.73;;;;;;;8.38;72.55;103311.06;6203779;23;20039;-76
2022/03/20 08:48:35;;;;;;;18.40;13.98;;;;;;;8.33;72.58;103305.53;6222579;23;20024;-76
2022/03/20 08:51:04;;;;;;;16.55;13.52;;;;;;;8.35;71.36;103305.63;6204566;23;20020;-77
2022/03/20 08:53:33;;;;;;;15.38;12.90;;;;;;;8.34;71.73;103290.69;6204423;23;20020;-77
2022/03/20 08:56:02;;;;;;;17.65;13.68;;;;;;;8.20;68.91;103289.97;6202262;23;20632;-77
2022/03/20 08:58:31;;;;;;;19.88;13.80;;;;;;;8.05;69.38;103287.44;6212407;23;20025;-77
2022/03/20 09:00:59;;;;;;;17.55;14.20;;;;;;;7.85;69.46;103275.91;6201727;23;20127;-77
2022/03/20 09:03:29;;;;;;;17.50;13.63;;;;;;;7.89;69.49;103283.13;6195469;23;20335;-77
2022/03/20 09:05:58;;;;;;;23.13;16.05;;;;;;;7.91;70.01;103268.34;6201761;23;20470;-77
2022/03/20 09:08:26;;;;;;;22.15;13.38;;;;;;;7.85;67.98;103243.50;6209502;23;20024;-77
2022/03/20 09:10:55;;;;;;;18.15;14.20;;;;;;;7.78;67.99;103272.03;6177545;23;20354;-77
2022/03/20 09:13:23;;;;;;;18.83;14.43;;;;;;;7.65;67.75;103253.81;6234039;23;20023;-77
2022/03/20 09:18:59;;;;;;;19.67;14.07;;;;;;;7.56;67.79;103254.25;6190604;23;20217;-77
2022/03/20 09:18:59;;;;;;;18.75;14.38;;;;;;;7.64;67.79;103248.50;6167768;23;20054;-77
2022/03/20 09:21:29;;;;;;;18.48;14.80;;;;;;;7.53;68.24;103261.94;6203643;23;20021;-77
2022/03/20 09:23:58;;;;;;;28.25;14.68;;;;;;;7.57;68.28;103270.88;6164922;23;20216;-77
2022/03/20 09:26:26;;;;;;;21.83;14.38;;;;;;;7.57;66.96;103245.53;6225707;23;20013;-77
2022/03/20 09:28:55;;;;;;;20.33;15.88;;;;;;;7.55;67.44;103246.28;6210622;23;20340;-77
2022/03/20 09:31:26;;;;;;;21.88;15.65;;;;;;;7.55;67.12;103225.31;6171871;23;20024;-76
2022/03/20 09:33:55;;;;;;;22.42;14.63;;;;;;;7.60;67.74;103215.97;6160976;23;20209;-76
2022/03/20 09:36:25;;;;;;;21.50;15.35;;;;;;;7.52;66.02;103207.66;6219607;23;20031;-75
2022/03/20 09:38:53;;;;;;;24.70;15.35;;;;;;;7.46;67.55;103206.44;6164433;23;20234;-77
2022/03/20 09:41:30;;;;;;;19.10;14.73;;;;;;;7.44;66.80;103197.59;6224794;23;20032;-76
2022/03/20 09:44:05;;;;;;;21.27;15.07;;;;;;;7.44;67.12;103197.59;6211040;23;20458;-76
2022/03/20 09:46:35;;;;;;;20.55;15.23;;;;;;;7.52;67.54;103198.88;6225556;23;20025;-76
2022/03/20 09:49:06;;;;;;;21.20;15.98;;;;;;;7.54;67.71;103203.41;6176187;23;20511;-77
2022/03/20 09:51:35;;;;;;;21.90;15.82;;;;;;;7.56;67.30;103192.97;6220336;23;20021;-77
2022/03/20 09:54:03;;;;;;;20.85;15.57;;;;;;;7.60;67.20;103197.59;6226814;23;20218;-77
2022/03/20 09:56:32;;;;;;;20.83;15.18;;;;;;;7.61;66.38;103194.13;6166266;23;20016;-77
2022/03/20 09:59:01;;;;;;;21.70;15.35;;;;;;;7.64;66.46;103190.75;6206118;23;20221;-76
2022/03/20 10:01:29;;;;;;;21.70;15.30;;;;;;;7.65;67.08;103197.81;6178310;23;20020;-78
2022/03/20 10:04:09;;;;;;;21.95;15.70;;;;;;;7.74;67.14;103186.06;6202274;23;20203;-78
2022/03/20 10:06:39;;;;;;;24.98;17.50;;;;;;;7.89;69.21;103183.34;6222907;23;20039;-78
2022/03/20 10:09:12;;;;;;;22.65;16.92;;;;;;;8.08;68.81;103182.56;6170365;23;20482;-76
2022/03/20 10:11:48;;;;;;;25.05;17.27;;;;;;;8.19;66.84;103186.63;6203325;23;20016;-76
2022/03/20 10:14:26;;;;;;;24.33;16.90;;;;;;;8.26;64.69;103163.28;6236033;23;20289;-76
2022/03/20 10:17:08;;;;;;;24.08;16.33;;;;;;;8.34;64.67;103151.47;6209497;23;20346;-78
2022/03/20 10:19:37;;;;;;;23.15;17.02;;;;;;;8.35;62.68;103172.53;6207906;23;20350;-78
2022/03/20 10:22:11;;;;;;;25.95;16.75;;;;;;;8.36;63.76;103155.06;6193307;23;20271;-78
2022/03/20 10:24:46;;;;;;;27.80;17.20;;;;;;;8.35;62.61;103145.38;6229743;23;20017;-78
2022/03/20 10:27:15;;;;;;;23.13;17.38;;;;;;;8.38;63.11;103151.69;6202862;23;20797;-75
2022/03/20 10:30:00;;;;;;;27.60;15.82;;;;;;;8.43;62.15;103149.31;6208202;23;20450;-78
2022/03/20 10:32:28;;;;;;;28.10;17.98;;;;;;;8.51;63.80;103139.19;6211790;23;20020;-76
2022/03/20 10:34:59;;;;;;;26.17;18.20;;;;;;;8.58;62.29;103150.06;6224042;23;20245;-76
2022/03/20 10:37:44;;;;;;;22.02;16.13;;;;;;;8.65;61.18;103134.59;6188364;23;20012;-76
2022/03/20 10:40:16;;;;;;;25.92;18.38;;;;;;;8.70;62.04;103122.56;6224173;23;20031;-78
2022/03/20 10:43:11;;;;;;;23.42;16.85;;;;;;;8.81;61.25;103110.81;6200243;23;20225;-77
2022/03/20 10:45:52;;;;;;;23.48;17.13;;;;;;;8.93;62.08;103110.47;6232790;23;20219;-77
2022/03/20 10:48:35;;;;;;;29.23;17.65;;;;;;;9.05;62.62;103102.25;6241803;23;20027;-78
2022/03/20 10:51:05;;;;;;;24.92;17.45;;;;;;;9.15;62.35;103102.75;6237069;23;20016;-78
2022/03/20 10:53:35;;;;;;;21.42;16.45;;;;;;;9.27;62.32;103118.16;6198231;23;20016;-77
2022/03/20 10:56:08;;;;;;;25.88;17.95;;;;;;;9.30;60.15;103099.91;6236169;23;20023;-77
2022/03/20 10:58:38;;;;;;;22.00;16.33;;;;;;;9.30;60.72;103092.00;6228509;23;20354;-77
2022/03/20 11:01:08;;;;;;;26.23;16.75;;;;;;;9.31;60.89;103096.44;6231320;23;20023;-77
2022/03/20 11:03:39;;;;;;;23.60;17.00;;;;;;;9.35;61.02;103079.94;6196480;23;20024;-77
2022/03/20 11:06:09;;;;;;;23.20;17.70;;;;;;;9.34;59.63;103069.38;6235096;23;20035;-77
2022/03/20 11:08:38;;;;;;;25.73;17.45;;;;;;;9.37;60.10;103066.84;6221927;23;21076;-77
2022/03/20 11:11:11;;;;;;;22.67;17.27;;;;;;;9.41;60.03;103053.00;6241979;23;20028;-77
2022/03/20 11:13:45;;;;;;;22.80;17.58;;;;;;;9.51;59.97;103060.47;6189817;23;20028;-77
2022/03/20 11:16:18;;;;;;;25.10;17.70;;;;;;;9.53;58.76;103057.91;6231517;23;20020;-78
2022/03/20 11:18:51;;;;;;;25.48;16.70;;;;;;;9.53;58.55;103034.22;6213410;23;20028;-78
2022/03/20 11:21:24;;;;;;;26.15;16.08;;;;;;;9.56;58.13;103035.25;6224142;23;20218;-76
2022/03/20 11:23:53;;;;;;;31.38;16.52;;;;;;;9.68;59.06;103028.69;6210861;23;20016;-76
2022/03/20 11:26:25;;;;;;;25.05;18.10;;;;;;;9.78;57.69;103011.53;6193452;23;20249;-76
2022/03/20 11:28:59;;;;;;;27.08;17.77;;;;;;;9.84;57.12;103010.03;6213039;23;20449;-77
2022/03/20 11:31:32;;;;;;;26.23;17.58;;;;;;;9.93;56.32;103010.41;6181331;23;20528;-76
2022/03/20 11:34:03;;;;;;;22.35;16.42;;;;;;;9.95;56.53;103008.75;6220714;23;20473;-77
2022/03/20 11:37:01;;;;;;;29.67;16.67;;;;;;;10.02;52.70;103003.72;6194610;23;20149;-78
2022/03/20 11:39:30;;;;;;;27.88;19.52;;;;;;;10.02;55.58;103004.63;6213140;23;20146;-78
2022/03/20 11:42:22;;;;;;;23.58;17.17;;;;;;;10.01;52.17;102989.66;6215399;23;20027;-79
2022/03/20 11:45:11;;;;;;;24.90;17.50;;;;;;;10.06;54.01;102981.94;6182277;23;20344;-77
2022/03/20 11:47:41;;;;;;;22.20;17.23;;;;;;;10.10;55.12;102982.13;6200604;23;20020;-77
2022/03/20 11:50:27;;;;;;;21.30;17.70;;;;;;;10.10;52.66;103005.81;6223883;23;20666;-78
2022/03/20 11:53:01;;;;;;;23.92;16.30;;;;;;;10.05;54.09;102967.84;6197312;23;20031;-78
2022/03/20 11:55:47;;;;;;;24.80;16.05;;;;;;;10.06;51.37;102938.06;6238935;23;20237;-79
2022/03/20 11:58:22;;;;;;;23.75;18.05;;;;;;;10.11;54.51;102932.94;6224953;23;20556;-78
2022/03/20 12:01:09;;;;;;;24.40;16.40;;;;;;;10.25;51.76;102922.97;6241138;23;20020;-78
2022/03/20 12:04:03;;;;;;;25.85;16.65;;;;;;;10.35;53.84;102917.22;6237738;23;20469;-78
2022/03/20 12:06:59;;;;;;;25.05;16.60;;;;;;;10.37;54.03;102920.81;6206490;23;20016;-78